Time;durP1;ratioP1;P1;durP2;ratioP2;P2;SDS_P1;SDS_P2;PMS_P1;PMS_P2;Temp;Humidity;BMP_temperature;BMP_pressure;BME280_temperature;BME280_humidity;BME280_pressure;Samples;Min_cycle;Max_cycle;Signal;HPM_P1;HPM_P2
2022/12/30 00:02:03;;;;;;;16.20;12.33;;;4.10;99.90;;;;;;6225888;28;20467;-67
2022/12/30 00:05:07;;;;;;;11.53;10.33;;;4.20;99.90;;;;;;6225793;28;20904;-67
2022/12/30 00:11:31;;;;;;;13.60;12.10;;;4.10;99.90;;;;;;6225186;28;20495;-67
2022/12/30 00:34:45;;;;;;;23.30;21.00;;;3.90;99.90;;;;;;6254720;28;20494;-67
2022/12/30 00:37:48;;;;;;;18.13;16.23;;;3.80;99.90;;;;;;6254414;28;20491;-67
2022/12/30 00:44:16;;;;;;;13.80;10.77;;;3.70;99.90;;;;;;6251831;28;20483;-68
2022/12/30 00:47:19;;;;;;;10.77;9.60;;;3.70;99.90;;;;;;6252977;28;20486;-67
2022/12/30 00:57:04;;;;;;;11.23;8.40;;;3.60;99.90;;;;;;6252303;28;20546;-67
2022/12/30 01:00:13;;;;;;;10.20;8.53;;;3.70;99.90;;;;;;6253508;28;20470;-67
2022/12/30 01:03:17;;;;;;;10.57;9.63;;;3.70;99.90;;;;;;6253904;28;20471;-67
2022/12/30 01:06:20;;;;;;;16.50;10.60;;;3.70;99.90;;;;;;6253341;28;20467;-67
2022/12/30 01:09:23;;;;;;;11.00;8.60;;;3.70;99.90;;;;;;6253344;28;20471;-67
2022/12/30 01:12:27;;;;;;;9.47;8.20;;;3.70;99.90;;;;;;6253444;28;20534;-68
2022/12/30 01:15:32;;;;;;;8.43;7.03;;;3.70;99.90;;;;;;6253170;28;20498;-67
2022/12/30 01:18:36;;;;;;;9.60;8.10;;;3.70;99.90;;;;;;6255844;28;20993;-67
2022/12/30 01:21:39;;;;;;;9.67;8.07;;;3.60;99.90;;;;;;6253395;28;20483;-67
2022/12/30 01:24:42;;;;;;;12.10;8.00;;;3.60;99.90;;;;;;6253109;28;20486;-67
2022/12/30 01:27:50;;;;;;;11.40;7.73;;;3.60;99.90;;;;;;6253220;28;20485;-67
2022/12/30 01:30:55;;;;;;;8.70;7.80;;;3.60;99.90;;;;;;6253883;28;20471;-67
2022/12/30 01:33:58;;;;;;;9.43;6.83;;;3.60;99.90;;;;;;6253159;28;20471;-67
2022/12/30 01:37:01;;;;;;;9.50;7.40;;;3.50;99.90;;;;;;6252624;28;20939;-66
2022/12/30 01:40:06;;;;;;;10.47;8.87;;;3.50;99.90;;;;;;6252037;28;20481;-67
2022/12/30 01:43:12;;;;;;;8.87;7.93;;;3.50;99.90;;;;;;6252965;28;20471;-67
2022/12/30 01:46:22;;;;;;;9.50;8.07;;;3.50;99.90;;;;;;6253126;28;20471;-67
2022/12/30 01:49:25;;;;;;;10.37;8.53;;;3.50;99.90;;;;;;6252973;28;20605;-67
2022/12/30 01:52:29;;;;;;;10.03;7.70;;;3.40;99.90;;;;;;6244826;28;20479;-67
2022/12/30 01:55:35;;;;;;;11.53;7.60;;;3.40;99.90;;;;;;6261803;28;20839;-67
2022/12/30 01:58:42;;;;;;;7.23;6.53;;;3.40;99.90;;;;;;6261066;28;20491;-67
2022/12/30 02:01:48;;;;;;;9.37;7.30;;;3.30;99.90;;;;;;6254125;28;20867;-67
2022/12/30 02:04:52;;;;;;;6.90;6.20;;;3.30;99.90;;;;;;6252687;28;20772;-68
2022/12/30 02:08:01;;;;;;;7.13;5.93;;;3.40;99.90;;;;;;6252245;28;20470;-67
2022/12/30 02:11:06;;;;;;;9.00;6.40;;;3.40;99.90;;;;;;6252199;28;20478;-67
2022/12/30 02:14:10;;;;;;;6.10;5.50;;;3.40;99.90;;;;;;6252796;28;20525;-68
2022/12/30 02:17:22;;;;;;;6.30;5.70;;;3.50;99.90;;;;;;6252576;28;20475;-67
2022/12/30 02:20:45;;;;;;;8.90;6.83;;;3.50;99.90;;;;;;6227633;28;20488;-68
2022/12/30 02:24:34;;;;;;;8.10;6.20;;;3.70;99.90;;;;;;6240046;28;20467;-68
2022/12/30 02:27:56;;;;;;;7.77;6.00;;;3.70;99.90;;;;;;6252126;28;20542;-67
2022/12/30 02:31:25;;;;;;;10.00;6.80;;;3.70;99.90;;;;;;6252286;28;20459;-67
2022/12/30 02:34:35;;;;;;;6.87;6.10;;;3.70;99.90;;;;;;6251940;28;20471;-67
2022/12/30 02:37:46;;;;;;;7.60;6.47;;;3.70;99.90;;;;;;6251682;28;20995;-67
2022/12/30 02:44:39;;;;;;;8.07;6.70;;;3.70;99.90;;;;;;6251533;28;20475;-67
2022/12/30 02:47:50;;;;;;;6.20;5.60;;;3.70;99.90;;;;;;6251535;28;20487;-68
2022/12/30 02:54:17;;;;;;;7.60;6.10;;;3.70;99.90;;;;;;6247366;28;20478;-68
2022/12/30 02:57:29;;;;;;;9.17;6.50;;;3.80;99.90;;;;;;6250969;28;20950;-67
2022/12/30 03:04:11;;;;;;;9.63;5.80;;;3.90;99.90;;;;;;6251236;28;20501;-68
2022/12/30 03:07:26;;;;;;;7.23;6.50;;;3.80;99.90;;;;;;6250727;28;20544;-67
2022/12/30 03:14:03;;;;;;;8.60;6.60;;;3.90;99.90;;;;;;6251068;28;20438;-68
2022/12/30 03:17:10;;;;;;;7.10;6.40;;;3.90;99.90;;;;;;6250683;28;20475;-67
2022/12/30 03:20:18;;;;;;;15.53;11.53;;;3.90;99.90;;;;;;6274980;28;20520;-67
2022/12/30 03:30:07;;;;;;;9.80;8.30;;;3.90;99.90;;;;;;6250733;28;20970;-67
2022/12/30 03:33:10;;;;;;;8.50;6.63;;;3.90;99.90;;;;;;6249441;28;20475;-67
2022/12/30 03:36:18;;;;;;;7.80;6.30;;;3.90;99.90;;;;;;6249972;28;20467;-68
2022/12/30 03:39:29;;;;;;;6.53;5.80;;;3.90;99.90;;;;;;6249823;28;20468;-67
2022/12/30 03:42:33;;;;;;;8.67;5.80;;;3.80;99.90;;;;;;6247333;28;20955;-67
2022/12/30 03:45:37;;;;;;;9.47;5.77;;;3.90;99.90;;;;;;6249783;28;20471;-68
2022/12/30 03:48:40;;;;;;;6.57;5.63;;;3.90;99.90;;;;;;6250092;28;20800;-68
2022/12/30 03:51:45;;;;;;;7.40;5.17;;;3.90;99.90;;;;;;6249823;28;20475;-68
2022/12/30 03:54:49;;;;;;;9.13;6.47;;;3.90;99.90;;;;;;6250029;28;20471;-67
2022/12/30 03:57:52;;;;;;;6.80;6.10;;;3.90;99.90;;;;;;6247458;28;20487;-67
2022/12/30 04:00:55;;;;;;;6.83;6.13;;;3.80;99.90;;;;;;6250083;28;20803;-68
2022/12/30 04:03:59;;;;;;;13.90;9.80;;;3.80;99.90;;;;;;6251890;28;20756;-68
2022/12/30 04:07:04;;;;;;;9.20;8.30;;;3.80;99.90;;;;;;6257619;28;20478;-67
2022/12/30 04:10:08;;;;;;;7.67;6.83;;;3.80;99.90;;;;;;6265122;28;20467;-67
2022/12/30 04:13:11;;;;;;;6.83;6.00;;;3.80;99.90;;;;;;6259376;28;20482;-67
2022/12/30 04:16:14;;;;;;;9.87;7.00;;;3.80;99.90;;;;;;6255021;28;20479;-67
2022/12/30 04:19:17;;;;;;;7.83;6.93;;;3.80;99.90;;;;;;6255480;28;20994;-68
2022/12/30 04:22:22;;;;;;;9.53;6.63;;;3.80;99.90;;;;;;6254072;28;20475;-68
2022/12/30 04:25:26;;;;;;;10.23;7.17;;;3.80;99.90;;;;;;6251759;28;20811;-67
2022/12/30 04:28:29;;;;;;;8.03;7.27;;;3.80;99.90;;;;;;6254475;28;20467;-67
2022/12/30 04:31:32;;;;;;;8.10;7.10;;;3.80;99.90;;;;;;6254605;28;20989;-67
2022/12/30 04:34:35;;;;;;;7.70;7.00;;;3.90;99.90;;;;;;6254760;28;20482;-67
2022/12/30 04:37:40;;;;;;;7.63;6.80;;;3.90;99.90;;;;;;6254275;28;20483;-67
2022/12/30 04:40:43;;;;;;;6.70;6.00;;;3.90;99.90;;;;;;6254509;28;20463;-67
2022/12/30 04:43:47;;;;;;;6.70;5.97;;;3.90;99.90;;;;;;6254641;28;20446;-68
2022/12/30 04:46:50;;;;;;;8.20;6.40;;;3.90;99.90;;;;;;6254830;28;20449;-68
2022/12/30 04:49:54;;;;;;;7.03;5.77;;;3.90;99.90;;;;;;6254591;28;20454;-68
2022/12/30 04:52:59;;;;;;;11.03;6.60;;;3.90;99.90;;;;;;6254045;28;20443;-68
2022/12/30 04:56:02;;;;;;;8.03;6.60;;;3.90;99.90;;;;;;6254098;28;20726;-68
2022/12/30 04:59:05;;;;;;;8.27;6.73;;;3.90;99.90;;;;;;6254279;28;20459;-67
2022/12/30 05:02:08;;;;;;;9.47;6.40;;;4.00;99.90;;;;;;6254102;28;20474;-69
2022/12/30 05:05:12;;;;;;;6.63;5.57;;;4.00;99.90;;;;;;6254395;28;20471;-68
2022/12/30 05:08:17;;;;;;;8.97;8.07;;;4.00;99.90;;;;;;6254319;28;20490;-67
2022/12/30 05:11:22;;;;;;;9.17;8.27;;;4.10;99.90;;;;;;6253957;28;20482;-68
2022/12/30 05:14:26;;;;;;;11.87;10.63;;;4.10;99.90;;;;;;6253702;28;20931;-68
2022/12/30 05:17:29;;;;;;;9.80;9.00;;;4.10;99.90;;;;;;6255475;28;20474;-68
2022/12/30 05:20:32;;;;;;;8.37;7.33;;;4.10;99.90;;;;;;6278442;28;20493;-67
2022/12/30 05:26:57;;;;;;;8.53;7.63;;;4.10;99.90;;;;;;6253922;28;20482;-67
2022/12/30 05:30:01;;;;;;;9.37;7.90;;;4.10;99.90;;;;;;6253571;28;20482;-67
2022/12/30 05:33:04;;;;;;;8.87;7.80;;;4.10;99.90;;;;;;6253260;28;20475;-67
2022/12/30 05:36:09;;;;;;;12.20;7.20;;;4.10;99.90;;;;;;6253235;28;20474;-67
2022/12/30 05:39:14;;;;;;;8.33;7.53;;;4.20;99.90;;;;;;6253347;28;20479;-67
2022/12/30 05:42:17;;;;;;;17.03;15.20;;;4.10;99.90;;;;;;6253119;28;20810;-67
2022/12/30 05:45:21;;;;;;;13.50;12.33;;;4.20;99.90;;;;;;6253012;28;21001;-67
2022/12/30 05:48:24;;;;;;;10.43;7.83;;;4.20;99.90;;;;;;6253154;28;20475;-66
2022/12/30 05:51:27;;;;;;;11.37;8.00;;;4.20;99.90;;;;;;6253174;28;20463;-67
2022/12/30 05:54:32;;;;;;;9.30;7.90;;;4.20;99.90;;;;;;6253049;28;20486;-67
2022/12/30 05:57:35;;;;;;;10.67;9.60;;;4.20;99.90;;;;;;6252907;28;20482;-67
2022/12/30 06:00:39;;;;;;;10.20;9.10;;;4.20;99.90;;;;;;6252526;28;20479;-67
2022/12/30 06:03:42;;;;;;;8.87;8.03;;;4.20;99.90;;;;;;6252305;28;20486;-67
2022/12/30 06:06:46;;;;;;;9.47;8.47;;;4.20;99.90;;;;;;6252395;28;20471;-67
2022/12/30 06:09:50;;;;;;;8.77;6.30;;;4.30;99.90;;;;;;6250691;28;20481;-67
2022/12/30 06:12:53;;;;;;;8.70;7.77;;;4.30;99.90;;;;;;6250608;28;20484;-67
2022/12/30 06:15:57;;;;;;;12.07;8.40;;;4.30;99.90;;;;;;6249884;28;20989;-67
2022/12/30 06:19:00;;;;;;;7.63;6.93;;;4.30;99.90;;;;;;6264210;28;20485;-67
2022/12/30 06:22:03;;;;;;;7.67;6.50;;;4.40;99.90;;;;;;6276527;28;20493;-67
2022/12/30 06:25:08;;;;;;;7.00;5.77;;;4.30;99.90;;;;;;6258898;28;20546;-67
2022/12/30 06:28:12;;;;;;;8.73;5.97;;;4.30;99.90;;;;;;6254522;28;20487;-67
2022/12/30 06:31:15;;;;;;;8.43;7.20;;;4.30;99.90;;;;;;6251612;28;20792;-67
2022/12/30 06:34:18;;;;;;;8.07;6.17;;;4.30;99.90;;;;;;6251027;28;20481;-67
2022/12/30 06:37:21;;;;;;;7.07;6.30;;;4.30;99.90;;;;;;6251097;28;20471;-66
2022/12/30 06:40:26;;;;;;;9.10;6.83;;;4.30;99.90;;;;;;6251197;28;20954;-67
2022/12/30 06:43:29;;;;;;;8.93;7.10;;;4.20;99.90;;;;;;6251290;28;20793;-67
2022/12/30 06:46:32;;;;;;;8.03;6.23;;;4.20;99.90;;;;;;6251511;28;20567;-67
2022/12/30 06:49:36;;;;;;;7.23;6.10;;;4.20;99.90;;;;;;6251428;28;20475;-67
2022/12/30 06:52:39;;;;;;;8.63;6.10;;;4.20;99.90;;;;;;6251166;28;20475;-67
2022/12/30 06:55:43;;;;;;;7.53;6.60;;;4.30;99.90;;;;;;6250951;28;20490;-67
2022/12/30 06:58:47;;;;;;;6.80;5.67;;;4.20;99.90;;;;;;6251305;28;20471;-67
2022/12/30 07:01:50;;;;;;;9.33;7.63;;;4.30;99.90;;;;;;6250856;28;20439;-67
2022/12/30 07:04:53;;;;;;;6.03;5.40;;;4.30;99.90;;;;;;6251015;28;20447;-67
2022/12/30 07:07:57;;;;;;;8.10;6.97;;;4.30;99.90;;;;;;6242084;28;20463;-66
2022/12/30 07:11:01;;;;;;;10.87;8.40;;;4.40;99.90;;;;;;6251550;28;20454;-67
2022/12/30 07:14:04;;;;;;;11.90;8.50;;;4.30;99.90;;;;;;6251427;28;20474;-67
2022/12/30 07:17:08;;;;;;;11.93;8.70;;;4.40;99.90;;;;;;6250899;28;20459;-66
2022/12/30 07:20:12;;;;;;;12.80;9.33;;;4.40;99.90;;;;;;6250548;28;20470;-67
2022/12/30 07:23:16;;;;;;;11.87;9.67;;;4.40;99.90;;;;;;6242609;28;20495;-67
2022/12/30 07:26:20;;;;;;;13.13;11.73;;;4.50;99.90;;;;;;6226355;28;20482;-67
2022/12/30 07:29:23;;;;;;;12.93;11.63;;;4.50;99.90;;;;;;6226294;28;20503;-66
2022/12/30 07:32:27;;;;;;;14.53;12.40;;;4.40;99.90;;;;;;6225990;28;20530;-66
2022/12/30 07:35:30;;;;;;;16.33;13.07;;;4.30;99.90;;;;;;6225393;28;20944;-67
2022/12/30 07:38:33;;;;;;;13.97;12.30;;;4.30;99.90;;;;;;6224460;28;20484;-67
2022/12/30 07:41:38;;;;;;;16.67;12.60;;;4.30;99.90;;;;;;6226001;28;20479;-67
2022/12/30 07:44:41;;;;;;;12.67;11.20;;;4.40;99.90;;;;;;6225831;28;20468;-67
2022/12/30 07:47:44;;;;;;;14.03;11.87;;;4.40;99.90;;;;;;6225682;28;20484;-67
2022/12/30 07:50:47;;;;;;;13.33;11.93;;;4.50;99.90;;;;;;6226134;28;20476;-67
2022/12/30 07:53:50;;;;;;;16.67;11.17;;;4.60;99.90;;;;;;6225258;28;21074;-67
2022/12/30 07:56:55;;;;;;;16.90;12.60;;;4.70;99.90;;;;;;6225500;28;20490;-66
2022/12/30 07:59:58;;;;;;;13.70;10.77;;;4.80;99.90;;;;;;6225760;28;20476;-66
2022/12/30 08:03:01;;;;;;;15.43;11.77;;;4.90;99.90;;;;;;6225476;28;20472;-67
2022/12/30 08:06:07;;;;;;;13.90;12.47;;;5.00;99.90;;;;;;6225702;28;20475;-67
2022/12/30 08:09:10;;;;;;;14.37;11.37;;;5.10;99.90;;;;;;6225429;28;20543;-67
2022/12/30 08:12:15;;;;;;;12.90;11.43;;;5.30;99.90;;;;;;6225111;28;20472;-67
2022/12/30 08:15:18;;;;;;;13.70;9.97;;;5.40;99.90;;;;;;6225347;28;20483;-67
2022/12/30 08:18:21;;;;;;;18.60;12.30;;;5.40;99.90;;;;;;6243243;28;20478;-67
2022/12/30 08:21:24;;;;;;;17.77;12.67;;;5.50;99.90;;;;;;6274133;28;20502;-67
2022/12/30 08:24:27;;;;;;;13.53;10.47;;;5.60;99.90;;;;;;6256788;28;20776;-67
2022/12/30 08:27:32;;;;;;;14.43;11.10;;;5.70;99.90;;;;;;6249999;28;20467;-66
2022/12/30 08:30:38;;;;;;;14.53;12.03;;;5.80;99.90;;;;;;6249771;28;20478;-67
2022/12/30 08:33:42;;;;;;;13.80;11.23;;;5.90;99.90;;;;;;6249649;28;20616;-67
2022/12/30 08:36:46;;;;;;;15.90;11.97;;;5.90;99.90;;;;;;6249435;28;20483;-67
2022/12/30 08:39:49;;;;;;;14.23;11.00;;;6.00;99.90;;;;;;6249199;28;20487;-66
2022/12/30 08:42:54;;;;;;;16.30;11.90;;;6.10;99.90;;;;;;6249793;28;20475;-66
2022/12/30 08:45:58;;;;;;;14.20;10.23;;;6.20;99.90;;;;;;6249251;28;20950;-67
2022/12/30 08:49:01;;;;;;;11.43;9.67;;;6.30;99.90;;;;;;6249541;28;20494;-67
2022/12/30 08:52:05;;;;;;;12.97;11.23;;;6.30;99.90;;;;;;6253767;28;20797;-67
2022/12/30 08:55:08;;;;;;;14.60;11.80;;;6.30;99.90;;;;;;6256252;28;20478;-67
2022/12/30 08:58:13;;;;;;;15.93;11.87;;;6.20;99.90;;;;;;6266854;28;20483;-66
2022/12/30 09:01:18;;;;;;;14.50;12.27;;;6.20;99.90;;;;;;6262238;28;20475;-67
2022/12/30 09:04:22;;;;;;;11.40;10.33;;;6.10;99.90;;;;;;6256215;28;20482;-67
2022/12/30 09:07:25;;;;;;;14.87;12.00;;;6.00;99.90;;;;;;6253466;28;20479;-65
2022/12/30 09:10:57;;;;;;;10.93;9.47;;;6.10;99.90;;;;;;6253482;28;20943;-67
2022/12/30 09:14:04;;;;;;;13.03;11.40;;;6.10;99.90;;;;;;6253610;28;20431;-67
2022/12/30 09:17:07;;;;;;;18.33;11.43;;;6.30;99.90;;;;;;6245022;28;20480;-66
2022/12/30 09:20:11;;;;;;;13.33;10.93;;;6.50;99.90;;;;;;6277310;28;20466;-67
2022/12/30 09:23:21;;;;;;;12.93;9.47;;;6.80;99.90;;;;;;6269633;28;20971;-66
2022/12/30 09:26:26;;;;;;;13.30;10.13;;;7.10;99.90;;;;;;6253509;28;20467;-66
2022/12/30 09:29:31;;;;;;;13.70;10.43;;;7.30;99.90;;;;;;6253272;28;20479;-66
2022/12/30 09:32:34;;;;;;;13.20;10.10;;;7.40;99.50;;;;;;6252539;28;20831;-66
2022/12/30 09:35:37;;;;;;;12.20;10.13;;;7.40;99.20;;;;;;6253139;28;20479;-66
2022/12/30 09:38:40;;;;;;;10.50;9.33;;;7.20;99.40;;;;;;6252871;28;20474;-67
2022/12/30 09:45:25;;;;;;;12.77;11.00;;;7.10;99.70;;;;;;6251418;28;20470;-67
2022/12/30 09:48:37;;;;;;;14.90;11.40;;;6.90;99.90;;;;;;6251017;28;20490;-67
2022/12/30 09:51:45;;;;;;;16.00;11.47;;;6.70;99.90;;;;;;6250187;28;20478;-67
2022/12/30 09:54:53;;;;;;;17.87;11.73;;;6.70;99.90;;;;;;6252372;28;20486;-67
2022/12/30 09:57:59;;;;;;;14.23;9.83;;;6.80;99.90;;;;;;6252343;28;20491;-67
2022/12/30 10:01:14;;;;;;;11.93;10.73;;;6.90;99.90;;;;;;6250807;28;20483;-67
2022/12/30 10:04:19;;;;;;;11.37;9.80;;;7.10;99.90;;;;;;6251263;28;20472;-67
2022/12/30 10:07:30;;;;;;;11.40;8.50;;;7.20;99.90;;;;;;6249086;28;20506;-67
2022/12/30 10:10:39;;;;;;;17.70;10.80;;;7.40;99.90;;;;;;6251665;28;20470;-68
2022/12/30 10:13:47;;;;;;;13.90;10.43;;;7.50;99.90;;;;;;6251641;28;20943;-67
2022/12/30 10:17:01;;;;;;;13.17;11.50;;;7.70;99.80;;;;;;6250332;28;20455;-67
2022/12/30 10:20:18;;;;;;;15.03;12.67;;;7.70;99.50;;;;;;6241646;28;20950;-67
2022/12/30 10:23:40;;;;;;;11.13;10.03;;;7.80;99.40;;;;;;6251364;28;20829;-67
2022/12/30 10:26:47;;;;;;;11.30;10.10;;;7.80;99.10;;;;;;6249093;28;20474;-67
2022/12/30 10:29:51;;;;;;;13.47;12.17;;;7.90;99.00;;;;;;6251254;28;20572;-66
2022/12/30 10:33:06;;;;;;;15.20;10.87;;;8.00;99.10;;;;;;6251757;28;20467;-66
2022/12/30 10:36:15;;;;;;;15.63;10.87;;;8.10;99.00;;;;;;6249875;28;20793;-67
2022/12/30 10:39:22;;;;;;;11.47;10.13;;;8.30;98.70;;;;;;6251135;28;20550;-66
2022/12/30 10:42:44;;;;;;;15.80;11.77;;;8.40;98.60;;;;;;6248750;28;20467;-66
2022/12/30 10:45:59;;;;;;;13.60;11.60;;;8.50;98.40;;;;;;6251133;28;20773;-67
2022/12/30 10:49:31;;;;;;;16.43;10.90;;;8.50;98.20;;;;;;6251400;28;20490;-66
2022/12/30 10:52:35;;;;;;;22.23;13.30;;;8.60;97.90;;;;;;6250187;28;20509;-68
2022/12/30 10:55:46;;;;;;;14.63;10.70;;;8.70;97.70;;;;;;6251327;28;20513;-67
2022/12/30 10:58:49;;;;;;;17.43;10.87;;;8.70;97.70;;;;;;6249008;28;20455;-67
2022/12/30 11:02:12;;;;;;;19.63;11.80;;;8.70;97.70;;;;;;6250713;28;20471;-67
2022/12/30 11:05:31;;;;;;;13.33;11.07;;;8.90;97.90;;;;;;6246972;28;20510;-67
2022/12/30 11:08:35;;;;;;;14.60;11.63;;;9.20;97.80;;;;;;6248972;28;20475;-67
2022/12/30 11:15:28;;;;;;;17.13;11.93;;;9.80;96.60;;;;;;6250297;28;20486;-68
2022/12/30 11:18:31;;;;;;;19.00;12.17;;;10.10;95.50;;;;;;6255884;28;20470;-68
2022/12/30 11:21:36;;;;;;;17.47;10.53;;;10.30;95.00;;;;;;6250767;28;20471;-67
2022/12/30 11:24:44;;;;;;;13.97;11.00;;;10.50;94.40;;;;;;6245952;28;20464;-67
2022/12/30 11:27:51;;;;;;;16.77;11.20;;;10.70;93.90;;;;;;6246111;28;20471;-66
2022/12/30 11:31:03;;;;;;;15.77;11.70;;;10.90;93.60;;;;;;6250279;28;20468;-67
2022/12/30 11:34:06;;;;;;;18.70;11.50;;;11.00;93.20;;;;;;6250694;28;20473;-67
2022/12/30 11:37:31;;;;;;;20.30;11.47;;;11.20;93.20;;;;;;6249496;28;20903;-66
2022/12/30 11:40:35;;;;;;;18.27;10.80;;;11.60;93.00;;;;;;6249416;28;20475;-67
2022/12/30 11:43:39;;;;;;;11.60;9.80;;;11.80;92.40;;;;;;6247634;28;20966;-67
2022/12/30 11:46:44;;;;;;;14.43;11.00;;;11.70;92.20;;;;;;6249774;28;20467;-68
2022/12/30 11:49:50;;;;;;;15.70;10.83;;;11.50;92.30;;;;;;6248431;28;20475;-67
2022/12/30 11:53:02;;;;;;;18.70;11.13;;;11.40;92.70;;;;;;6250470;28;20427;-66
2022/12/30 11:56:06;;;;;;;15.57;10.90;;;11.10;92.70;;;;;;6250876;28;20485;-66
2022/12/30 11:59:14;;;;;;;25.33;13.50;;;10.80;93.40;;;;;;6250078;28;20475;-66
2022/12/30 12:02:22;;;;;;;13.43;11.20;;;10.60;93.60;;;;;;6250267;28;20781;-64
2022/12/30 12:05:28;;;;;;;21.33;11.40;;;10.50;93.90;;;;;;6251382;28;20471;-68
2022/12/30 12:08:37;;;;;;;21.83;11.43;;;10.30;94.10;;;;;;6249967;28;20471;-68
2022/12/30 12:11:45;;;;;;;10.93;9.33;;;10.30;94.40;;;;;;6250747;28;20475;-69
2022/12/30 12:15:02;;;;;;;18.73;10.43;;;10.20;94.80;;;;;;6249337;28;20478;-68
2022/12/30 12:18:14;;;;;;;15.67;8.40;;;10.20;94.50;;;;;;6247615;28;20494;-67
2022/12/30 12:21:23;;;;;;;12.20;7.97;;;10.10;94.60;;;;;;6250369;28;20479;-68
2022/12/30 12:24:35;;;;;;;7.73;6.77;;;10.10;94.90;;;;;;6249497;28;20970;-68
2022/12/30 12:27:38;;;;;;;9.33;7.67;;;10.20;95.00;;;;;;6255634;28;20970;-68
2022/12/30 12:31:04;;;;;;;9.70;6.63;;;10.30;94.90;;;;;;6245937;28;20478;-68
2022/12/30 12:34:18;;;;;;;15.03;9.53;;;10.50;94.80;;;;;;6255334;28;20482;-68
2022/12/30 12:37:34;;;;;;;12.40;7.53;;;10.70;94.50;;;;;;6255136;28;20962;-68
2022/12/30 12:40:56;;;;;;;8.23;6.90;;;11.00;94.20;;;;;;6254177;28;20475;-68
2022/12/30 12:44:13;;;;;;;15.97;7.67;;;11.30;93.90;;;;;;6254095;28;20447;-68
2022/12/30 12:47:29;;;;;;;9.00;6.23;;;11.50;93.20;;;;;;6253856;28;20997;-68
2022/12/30 12:50:44;;;;;;;10.73;7.40;;;11.70;92.80;;;;;;6253756;28;20467;-67
2022/12/30 12:54:02;;;;;;;11.70;6.30;;;11.80;92.20;;;;;;6240164;28;20493;-67
2022/12/30 12:57:35;;;;;;;7.73;6.90;;;11.90;92.00;;;;;;6260502;28;20631;-68
2022/12/30 13:00:51;;;;;;;8.73;7.00;;;11.80;91.80;;;;;;6276867;28;20466;-68
2022/12/30 13:04:07;;;;;;;9.57;6.87;;;11.70;91.90;;;;;;6278563;28;20789;-66
2022/12/30 13:07:24;;;;;;;10.87;6.40;;;11.60;91.90;;;;;;6278495;28;20466;-67
2022/12/30 13:10:35;;;;;;;26.93;19.60;;;11.60;91.90;;;;;;6278759;28;20474;-67
2022/12/30 13:14:07;;;;;;;11.20;8.47;;;11.50;91.90;;;;;;6278348;28;20514;-69
2022/12/30 13:17:16;;;;;;;10.60;6.90;;;11.50;91.90;;;;;;6280339;28;20934;-69
2022/12/30 13:20:25;;;;;;;11.30;7.60;;;11.50;92.10;;;;;;6236938;28;20495;-69
2022/12/30 13:23:34;;;;;;;14.80;10.23;;;11.60;92.00;;;;;;6248169;28;20474;-68
2022/12/30 13:26:38;;;;;;;12.23;8.80;;;11.60;92.00;;;;;;6254903;28;20482;-68
2022/12/30 13:29:44;;;;;;;26.63;17.13;;;11.60;92.00;;;;;;6254438;28;20837;-68
2022/12/30 13:32:56;;;;;;;20.43;13.00;;;11.60;91.90;;;;;;6245930;28;20514;-68
2022/12/30 13:36:05;;;;;;;17.60;9.07;;;11.50;91.90;;;;;;6252299;28;20499;-67
2022/12/30 13:39:23;;;;;;;16.07;9.00;;;11.50;91.90;;;;;;6253281;28;20498;-66
2022/12/30 13:42:58;;;;;;;16.13;8.20;;;11.40;91.90;;;;;;6253238;28;20502;-66
2022/12/30 13:46:03;;;;;;;10.80;7.73;;;11.30;92.00;;;;;;6238885;28;20478;-68
2022/12/30 13:49:17;;;;;;;18.93;8.97;;;11.30;92.30;;;;;;6253569;28;20471;-67
2022/12/30 13:52:22;;;;;;;13.90;8.50;;;11.20;92.40;;;;;;6252767;28;21028;-66
2022/12/30 13:55:30;;;;;;;12.77;8.80;;;11.20;92.40;;;;;;6253264;28;20475;-68
2022/12/30 13:58:36;;;;;;;20.13;10.73;;;11.10;92.40;;;;;;6269858;28;20477;-65
2022/12/30 14:01:40;;;;;;;11.10;9.10;;;11.10;92.50;;;;;;6277829;28;20493;-68
2022/12/30 14:04:46;;;;;;;15.77;10.13;;;11.00;92.70;;;;;;6277973;28;20489;-65
2022/12/30 14:07:51;;;;;;;10.90;8.27;;;11.10;92.70;;;;;;6277339;28;20458;-65
2022/12/30 14:11:06;;;;;;;16.73;9.70;;;11.80;93.70;;;;;;6278290;28;20450;-65
2022/12/30 14:14:21;;;;;;;14.80;9.90;;;14.60;91.30;;;;;;6277960;28;20485;-65
2022/12/30 14:17:29;;;;;;;19.53;11.20;;;17.70;80.30;;;;;;6277395;28;20478;-66
2022/12/30 14:20:32;;;;;;;20.97;11.90;;;19.70;68.80;;;;;;6276997;28;20805;-66
2022/12/30 14:23:42;;;;;;;22.80;9.63;;;20.40;58.50;;;;;;6272733;28;20467;-65
2022/12/30 14:26:46;;;;;;;12.67;9.97;;;20.30;55.20;;;;;;6252466;28;20224;-67
2022/12/30 14:30:02;;;;;;;13.03;9.30;;;19.80;54.90;;;;;;6252411;28;20490;-66
2022/12/30 14:33:18;;;;;;;13.97;9.20;;;18.90;54.80;;;;;;6252515;28;20236;-65
2022/12/30 14:36:23;;;;;;;15.40;9.73;;;17.90;55.40;;;;;;6248764;28;20475;-65
2022/12/30 14:39:29;;;;;;;18.73;10.93;;;16.80;57.10;;;;;;6252652;28;20479;-66
2022/12/30 14:42:32;;;;;;;15.37;9.67;;;15.90;59.20;;;;;;6252060;28;20490;-66
2022/12/30 14:45:35;;;;;;;17.60;11.33;;;15.00;61.90;;;;;;6252760;28;20486;-66
2022/12/30 14:49:02;;;;;;;21.30;11.93;;;14.30;64.40;;;;;;6252322;28;20485;-65
2022/12/30 14:52:19;;;;;;;11.90;9.40;;;13.50;67.60;;;;;;6227320;28;20479;-65
2022/12/30 14:55:25;;;;;;;15.70;9.90;;;12.90;70.40;;;;;;6227649;28;20502;-67
2022/12/30 14:58:29;;;;;;;14.60;10.10;;;12.50;72.90;;;;;;6259122;28;20478;-67
2022/12/30 15:01:32;;;;;;;18.87;9.90;;;12.20;75.30;;;;;;6251662;28;20962;-67
2022/12/30 15:04:37;;;;;;;16.17;8.90;;;11.90;77.30;;;;;;6250622;28;20816;-67
2022/12/30 15:07:41;;;;;;;14.63;11.40;;;11.60;79.20;;;;;;6246346;28;20486;-67
2022/12/30 15:10:53;;;;;;;17.53;10.20;;;11.40;81.20;;;;;;6250845;28;20490;-66
2022/12/30 15:13:58;;;;;;;18.10;11.30;;;11.20;84.00;;;;;;6251165;28;20440;-66
2022/12/30 15:17:21;;;;;;;20.60;14.53;;;11.00;84.90;;;;;;6249453;28;20445;-66
2022/12/30 15:20:30;;;;;;;22.03;13.03;;;10.80;87.30;;;;;;6226348;28;20478;-66
2022/12/30 15:23:41;;;;;;;23.03;13.03;;;10.60;88.80;;;;;;6231620;28;20472;-67
2022/12/30 15:26:51;;;;;;;21.03;14.40;;;10.50;89.90;;;;;;6251743;28;21046;-67
2022/12/30 15:29:56;;;;;;;18.70;14.10;;;10.40;90.50;;;;;;6253943;28;20463;-67
2022/12/30 15:33:10;;;;;;;26.40;14.27;;;10.30;91.00;;;;;;6265561;28;20482;-67
2022/12/30 15:36:15;;;;;;;19.20;13.43;;;10.20;91.70;;;;;;6258014;28;20473;-67
2022/12/30 15:39:20;;;;;;;25.20;15.33;;;10.10;92.30;;;;;;6251419;28;20951;-67
2022/12/30 15:42:26;;;;;;;21.30;15.47;;;10.00;92.80;;;;;;6247151;28;20479;-67
2022/12/30 15:45:36;;;;;;;20.90;15.13;;;9.90;93.70;;;;;;6251212;28;20471;-68
2022/12/30 15:48:41;;;;;;;19.43;13.47;;;9.80;93.90;;;;;;6250119;28;20967;-67
2022/12/30 15:51:50;;;;;;;23.20;14.70;;;9.80;94.20;;;;;;6244807;28;20471;-68
2022/12/30 15:54:56;;;;;;;26.27;16.60;;;9.80;94.50;;;;;;6247618;28;20481;-68
2022/12/30 15:58:01;;;;;;;20.53;14.60;;;9.70;94.70;;;;;;6252667;28;20788;-67
2022/12/30 16:01:08;;;;;;;21.47;15.80;;;9.70;94.80;;;;;;6250007;28;20467;-63
2022/12/30 16:04:13;;;;;;;21.03;14.80;;;9.70;95.10;;;;;;6226460;28;20484;-64
2022/12/30 16:07:27;;;;;;;28.10;15.50;;;9.70;95.40;;;;;;6226399;28;20491;-65
2022/12/30 16:10:31;;;;;;;22.40;14.83;;;9.60;95.50;;;;;;6232157;28;20482;-64
2022/12/30 16:13:37;;;;;;;27.03;15.87;;;9.60;95.70;;;;;;6249769;28;20471;-63
2022/12/30 16:16:41;;;;;;;18.77;13.90;;;9.50;95.90;;;;;;6253279;28;20503;-63
2022/12/30 16:19:44;;;;;;;25.23;17.53;;;9.50;96.20;;;;;;6250549;28;20486;-63
2022/12/30 16:22:50;;;;;;;29.93;15.90;;;9.40;96.40;;;;;;6253728;28;20498;-63
2022/12/30 16:25:57;;;;;;;24.60;15.10;;;9.40;96.70;;;;;;6253872;28;20543;-64
2022/12/30 16:29:16;;;;;;;26.60;17.90;;;9.40;96.80;;;;;;6249827;28;20849;-63
2022/12/30 16:32:22;;;;;;;25.60;17.47;;;9.30;97.10;;;;;;6249076;28;20807;-63
2022/12/30 16:35:25;;;;;;;28.27;17.83;;;9.30;97.30;;;;;;6249196;28;20479;-62
2022/12/30 16:38:35;;;;;;;25.17;18.67;;;9.30;97.40;;;;;;6248565;28;20810;-63
2022/12/30 16:41:39;;;;;;;24.70;18.23;;;9.20;97.70;;;;;;6249803;28;20467;-64
2022/12/30 16:44:42;;;;;;;22.60;17.13;;;9.20;98.00;;;;;;6240585;28;20491;-63
2022/12/30 16:47:46;;;;;;;27.03;19.43;;;9.10;98.20;;;;;;6249705;28;20486;-63
2022/12/30 16:50:49;;;;;;;24.37;16.40;;;9.10;98.50;;;;;;6249083;28;20814;-67
2022/12/30 16:53:54;;;;;;;26.43;16.03;;;9.10;98.70;;;;;;6250016;28;20481;-63
2022/12/30 16:56:58;;;;;;;24.03;14.93;;;9.10;98.90;;;;;;6263497;28;20485;-63
2022/12/30 17:00:01;;;;;;;19.07;15.40;;;9.00;99.00;;;;;;6258563;28;20463;-62
2022/12/30 17:03:27;;;;;;;17.77;13.67;;;8.90;99.10;;;;;;6230231;28;20555;-62
2022/12/30 17:06:30;;;;;;;17.97;13.23;;;8.80;99.50;;;;;;6232566;28;20474;-62
2022/12/30 17:12:55;;;;;;;16.87;13.83;;;8.70;99.70;;;;;;6253993;28;20471;-62
2022/12/30 17:15:59;;;;;;;18.60;14.50;;;8.60;99.90;;;;;;6253483;28;20999;-64
2022/12/30 17:19:03;;;;;;;15.13;13.20;;;8.50;99.90;;;;;;6267707;28;20470;-63